Amity Harbor, New York
Current Conditions -  °F | °C
As of 10:14 AM on Friday 24 Oct 2014 (Local Time) from KFRG Reporting Station
Overcast Overcast  
Wind Chill: 53°   Ceiling: 2300
Heat Index: 53°   Visibility: 10mi
Dew Point: 46°   Wind: 9mph
Humidity: 77%   Direction: 350°N
Pressure: 29.81"   Gusts: NA
Location:  40.6858°N, 73.4152°W
Report Text: KFRG 241414Z 35008KT 10SM BKN023 BKN048 OVC090 12/08 A2981 RMK AO2 T01170078
Loading
Personal Weather Stations






























Interactive Weather Map New forecast layout! Learn more

10-Day Weather Forecast

Advertisements
Track Severe Weather on mobile